sensor_id;sensor_type;location;lat;lon;timestamp;P1;durP1;ratioP1;P2;durP2;ratioP2
70228;SDS011;57617;51.988;5.854;2022-12-11T00:02:20;261.97;;;22.83;;
70228;SDS011;57617;51.988;5.854;2022-12-11T00:04:46;253.70;;;24.67;;
70228;SDS011;57617;51.988;5.854;2022-12-11T00:07:11;201.83;;;22.40;;
70228;SDS011;57617;51.988;5.854;2022-12-11T00:09:36;217.43;;;23.67;;
70228;SDS011;57617;51.988;5.854;2022-12-11T00:12:02;379.37;;;25.20;;
70228;SDS011;57617;51.988;5.854;2022-12-11T00:14:29;359.40;;;24.57;;
70228;SDS011;57617;51.988;5.854;2022-12-11T00:16:54;386.13;;;25.03;;
70228;SDS011;57617;51.988;5.854;2022-12-11T00:19:20;238.37;;;22.80;;
70228;SDS011;57617;51.988;5.854;2022-12-11T00:21:45;351.47;;;23.67;;
70228;SDS011;57617;51.988;5.854;2022-12-11T00:24:11;265.77;;;23.37;;
70228;SDS011;57617;51.988;5.854;2022-12-11T00:26:37;358.93;;;25.20;;
70228;SDS011;57617;51.988;5.854;2022-12-11T00:29:03;230.17;;;23.83;;
70228;SDS011;57617;51.988;5.854;2022-12-11T00:31:28;256.37;;;24.27;;
70228;SDS011;57617;51.988;5.854;2022-12-11T00:33:54;234.53;;;22.63;;
70228;SDS011;57617;51.988;5.854;2022-12-11T00:36:20;246.87;;;22.03;;
70228;SDS011;57617;51.988;5.854;2022-12-11T00:38:48;252.33;;;22.97;;
70228;SDS011;57617;51.988;5.854;2022-12-11T00:41:13;245.93;;;23.17;;
70228;SDS011;57617;51.988;5.854;2022-12-11T00:43:39;244.73;;;22.93;;
70228;SDS011;57617;51.988;5.854;2022-12-11T00:46:05;248.57;;;22.90;;
70228;SDS011;57617;51.988;5.854;2022-12-11T00:48:30;215.03;;;22.30;;
70228;SDS011;57617;51.988;5.854;2022-12-11T00:50:56;230.50;;;22.63;;
70228;SDS011;57617;51.988;5.854;2022-12-11T00:53:21;178.40;;;20.83;;
70228;SDS011;57617;51.988;5.854;2022-12-11T00:55:47;201.87;;;22.03;;
70228;SDS011;57617;51.988;5.854;2022-12-11T00:58:12;146.43;;;20.90;;
70228;SDS011;57617;51.988;5.854;2022-12-11T01:00:38;209.77;;;20.90;;
70228;SDS011;57617;51.988;5.854;2022-12-11T01:03:05;188.67;;;21.77;;
70228;SDS011;57617;51.988;5.854;2022-12-11T01:05:31;198.60;;;22.20;;
70228;SDS011;57617;51.988;5.854;2022-12-11T01:07:57;188.47;;;21.40;;
70228;SDS011;57617;51.988;5.854;2022-12-11T01:10:23;194.07;;;22.70;;
70228;SDS011;57617;51.988;5.854;2022-12-11T01:12:58;212.97;;;23.30;;
70228;SDS011;57617;51.988;5.854;2022-12-11T01:15:34;215.03;;;21.90;;
70228;SDS011;57617;51.988;5.854;2022-12-11T01:18:03;199.40;;;23.50;;
70228;SDS011;57617;51.988;5.854;2022-12-11T01:20:29;214.87;;;23.40;;
70228;SDS011;57617;51.988;5.854;2022-12-11T01:22:56;145.40;;;19.97;;
70228;SDS011;57617;51.988;5.854;2022-12-11T01:25:22;213.50;;;22.23;;
70228;SDS011;57617;51.988;5.854;2022-12-11T01:27:49;210.63;;;22.13;;
70228;SDS011;57617;51.988;5.854;2022-12-11T01:30:15;195.80;;;21.93;;
70228;SDS011;57617;51.988;5.854;2022-12-11T01:32:41;211.40;;;22.40;;
70228;SDS011;57617;51.988;5.854;2022-12-11T01:35:07;198.83;;;23.57;;
70228;SDS011;57617;51.988;5.854;2022-12-11T01:37:33;183.53;;;21.57;;
70228;SDS011;57617;51.988;5.854;2022-12-11T01:39:59;178.47;;;22.50;;
70228;SDS011;57617;51.988;5.854;2022-12-11T01:42:25;172.37;;;21.83;;
70228;SDS011;57617;51.988;5.854;2022-12-11T01:47:45;184.17;;;22.33;;
70228;SDS011;57617;51.988;5.854;2022-12-11T01:50:11;215.40;;;22.77;;
70228;SDS011;57617;51.988;5.854;2022-12-11T01:52:37;240.37;;;23.80;;
70228;SDS011;57617;51.988;5.854;2022-12-11T01:55:04;208.23;;;22.03;;
70228;SDS011;57617;51.988;5.854;2022-12-11T01:57:31;256.07;;;23.57;;
70228;SDS011;57617;51.988;5.854;2022-12-11T01:59:56;250.90;;;23.93;;
70228;SDS011;57617;51.988;5.854;2022-12-11T02:02:26;302.80;;;23.60;;
70228;SDS011;57617;51.988;5.854;2022-12-11T02:04:54;287.43;;;22.93;;
70228;SDS011;57617;51.988;5.854;2022-12-11T02:07:19;204.07;;;22.07;;
70228;SDS011;57617;51.988;5.854;2022-12-11T02:09:45;231.47;;;22.37;;
70228;SDS011;57617;51.988;5.854;2022-12-11T02:12:21;234.70;;;22.33;;
70228;SDS011;57617;51.988;5.854;2022-12-11T02:15:11;213.07;;;21.83;;
70228;SDS011;57617;51.988;5.854;2022-12-11T02:20:16;376.47;;;25.03;;
70228;SDS011;57617;51.988;5.854;2022-12-11T02:23:13;381.77;;;23.60;;
70228;SDS011;57617;51.988;5.854;2022-12-11T02:25:54;307.97;;;23.93;;
70228;SDS011;57617;51.988;5.854;2022-12-11T02:28:32;401.20;;;23.53;;
70228;SDS011;57617;51.988;5.854;2022-12-11T02:31:12;421.53;;;24.97;;
70228;SDS011;57617;51.988;5.854;2022-12-11T02:33:45;421.30;;;24.87;;
70228;SDS011;57617;51.988;5.854;2022-12-11T02:36:16;376.30;;;26.07;;
70228;SDS011;57617;51.988;5.854;2022-12-11T02:38:45;582.70;;;29.07;;
70228;SDS011;57617;51.988;5.854;2022-12-11T02:41:16;476.93;;;24.77;;
70228;SDS011;57617;51.988;5.854;2022-12-11T02:43:43;413.70;;;23.43;;
70228;SDS011;57617;51.988;5.854;2022-12-11T02:46:10;333.50;;;23.70;;
70228;SDS011;57617;51.988;5.854;2022-12-11T02:48:37;483.23;;;25.20;;
70228;SDS011;57617;51.988;5.854;2022-12-11T02:51:05;730.23;;;28.83;;
70228;SDS011;57617;51.988;5.854;2022-12-11T02:53:34;469.20;;;25.80;;
70228;SDS011;57617;51.988;5.854;2022-12-11T02:56:04;371.20;;;23.70;;
70228;SDS011;57617;51.988;5.854;2022-12-11T02:58:46;591.50;;;26.40;;
70228;SDS011;57617;51.988;5.854;2022-12-11T03:01:14;591.23;;;28.33;;
70228;SDS011;57617;51.988;5.854;2022-12-11T03:03:39;459.80;;;25.47;;
70228;SDS011;57617;51.988;5.854;2022-12-11T03:06:05;370.40;;;22.57;;
70228;SDS011;57617;51.988;5.854;2022-12-11T03:08:31;423.33;;;24.50;;
70228;SDS011;57617;51.988;5.854;2022-12-11T03:10:57;493.23;;;26.57;;
70228;SDS011;57617;51.988;5.854;2022-12-11T03:13:23;547.03;;;28.53;;
70228;SDS011;57617;51.988;5.854;2022-12-11T03:15:56;399.30;;;24.73;;
70228;SDS011;57617;51.988;5.854;2022-12-11T03:18:38;364.77;;;24.63;;
70228;SDS011;57617;51.988;5.854;2022-12-11T03:26:24;574.17;;;28.67;;
70228;SDS011;57617;51.988;5.854;2022-12-11T03:28:57;457.13;;;26.30;;
70228;SDS011;57617;51.988;5.854;2022-12-11T03:34:28;262.03;;;23.90;;
70228;SDS011;57617;51.988;5.854;2022-12-11T03:37:00;257.87;;;22.77;;
70228;SDS011;57617;51.988;5.854;2022-12-11T03:39:30;242.43;;;23.50;;
70228;SDS011;57617;51.988;5.854;2022-12-11T03:42:00;244.70;;;25.43;;
70228;SDS011;57617;51.988;5.854;2022-12-11T03:44:28;254.13;;;24.60;;
70228;SDS011;57617;51.988;5.854;2022-12-11T03:46:55;254.27;;;24.43;;
70228;SDS011;57617;51.988;5.854;2022-12-11T03:49:25;262.07;;;24.83;;
70228;SDS011;57617;51.988;5.854;2022-12-11T03:51:54;250.53;;;23.97;;
70228;SDS011;57617;51.988;5.854;2022-12-11T03:54:22;259.67;;;24.70;;
70228;SDS011;57617;51.988;5.854;2022-12-11T03:56:48;247.10;;;24.20;;
70228;SDS011;57617;51.988;5.854;2022-12-11T03:59:17;272.27;;;25.37;;
70228;SDS011;57617;51.988;5.854;2022-12-11T04:01:42;248.67;;;24.67;;
70228;SDS011;57617;51.988;5.854;2022-12-11T04:04:08;285.07;;;25.30;;
70228;SDS011;57617;51.988;5.854;2022-12-11T04:06:33;235.30;;;23.50;;
70228;SDS011;57617;51.988;5.854;2022-12-11T04:08:58;244.33;;;24.43;;
70228;SDS011;57617;51.988;5.854;2022-12-11T04:11:24;224.57;;;23.90;;
70228;SDS011;57617;51.988;5.854;2022-12-11T04:13:58;285.17;;;25.13;;
70228;SDS011;57617;51.988;5.854;2022-12-11T04:16:43;286.67;;;24.93;;
70228;SDS011;57617;51.988;5.854;2022-12-11T04:19:10;241.17;;;23.50;;
70228;SDS011;57617;51.988;5.854;2022-12-11T04:21:54;270.03;;;25.10;;
70228;SDS011;57617;51.988;5.854;2022-12-11T04:24:38;230.33;;;23.87;;
70228;SDS011;57617;51.988;5.854;2022-12-11T04:27:03;244.20;;;24.17;;
70228;SDS011;57617;51.988;5.854;2022-12-11T04:29:29;226.60;;;24.43;;
70228;SDS011;57617;51.988;5.854;2022-12-11T04:31:54;215.03;;;25.30;;
70228;SDS011;57617;51.988;5.854;2022-12-11T04:34:19;242.23;;;25.07;;
70228;SDS011;57617;51.988;5.854;2022-12-11T04:36:44;240.10;;;25.03;;
70228;SDS011;57617;51.988;5.854;2022-12-11T04:39:10;196.33;;;23.33;;
70228;SDS011;57617;51.988;5.854;2022-12-11T04:41:35;198.80;;;23.77;;
70228;SDS011;57617;51.988;5.854;2022-12-11T04:44:02;201.63;;;24.47;;
70228;SDS011;57617;51.988;5.854;2022-12-11T04:46:28;190.17;;;24.03;;
70228;SDS011;57617;51.988;5.854;2022-12-11T04:48:53;149.93;;;23.03;;
70228;SDS011;57617;51.988;5.854;2022-12-11T04:51:19;190.57;;;23.93;;
70228;SDS011;57617;51.988;5.854;2022-12-11T04:53:44;175.70;;;23.70;;
70228;SDS011;57617;51.988;5.854;2022-12-11T04:56:12;180.87;;;23.53;;
70228;SDS011;57617;51.988;5.854;2022-12-11T04:58:39;174.93;;;25.23;;
70228;SDS011;57617;51.988;5.854;2022-12-11T05:01:07;166.40;;;24.67;;
70228;SDS011;57617;51.988;5.854;2022-12-11T05:03:36;160.20;;;23.90;;
70228;SDS011;57617;51.988;5.854;2022-12-11T05:06:02;181.60;;;25.40;;
70228;SDS011;57617;51.988;5.854;2022-12-11T05:08:28;188.93;;;25.50;;
70228;SDS011;57617;51.988;5.854;2022-12-11T05:11:00;185.97;;;24.90;;
70228;SDS011;57617;51.988;5.854;2022-12-11T05:13:27;151.60;;;24.23;;
70228;SDS011;57617;51.988;5.854;2022-12-11T05:15:54;172.10;;;23.43;;
70228;SDS011;57617;51.988;5.854;2022-12-11T05:18:20;158.43;;;23.87;;
70228;SDS011;57617;51.988;5.854;2022-12-11T05:20:53;147.53;;;23.53;;
70228;SDS011;57617;51.988;5.854;2022-12-11T05:23:23;151.33;;;24.23;;
70228;SDS011;57617;51.988;5.854;2022-12-11T05:25:52;150.53;;;24.07;;
70228;SDS011;57617;51.988;5.854;2022-12-11T05:28:22;154.63;;;24.30;;
70228;SDS011;57617;51.988;5.854;2022-12-11T05:30:56;135.00;;;23.17;;
70228;SDS011;57617;51.988;5.854;2022-12-11T05:33:23;161.53;;;23.53;;
70228;SDS011;57617;51.988;5.854;2022-12-11T05:35:49;153.83;;;24.00;;
70228;SDS011;57617;51.988;5.854;2022-12-11T05:38:14;150.40;;;25.03;;
70228;SDS011;57617;51.988;5.854;2022-12-11T05:40:40;160.37;;;24.10;;
70228;SDS011;57617;51.988;5.854;2022-12-11T05:43:05;140.27;;;23.90;;
70228;SDS011;57617;51.988;5.854;2022-12-11T05:45:30;147.57;;;24.83;;
70228;SDS011;57617;51.988;5.854;2022-12-11T05:47:56;146.37;;;25.37;;
70228;SDS011;57617;51.988;5.854;2022-12-11T05:50:21;141.50;;;24.23;;
70228;SDS011;57617;51.988;5.854;2022-12-11T05:52:46;131.43;;;24.83;;
70228;SDS011;57617;51.988;5.854;2022-12-11T05:55:12;141.20;;;23.43;;
70228;SDS011;57617;51.988;5.854;2022-12-11T05:57:37;128.13;;;23.67;;
70228;SDS011;57617;51.988;5.854;2022-12-11T06:00:03;135.30;;;24.37;;
70228;SDS011;57617;51.988;5.854;2022-12-11T06:02:29;132.93;;;24.37;;
70228;SDS011;57617;51.988;5.854;2022-12-11T06:04:54;129.47;;;22.70;;
70228;SDS011;57617;51.988;5.854;2022-12-11T06:07:19;128.47;;;23.17;;
70228;SDS011;57617;51.988;5.854;2022-12-11T06:09:45;136.40;;;23.67;;
70228;SDS011;57617;51.988;5.854;2022-12-11T06:12:10;121.23;;;23.20;;
70228;SDS011;57617;51.988;5.854;2022-12-11T06:14:35;133.47;;;24.43;;
70228;SDS011;57617;51.988;5.854;2022-12-11T06:17:00;123.60;;;24.23;;
70228;SDS011;57617;51.988;5.854;2022-12-11T06:19:26;116.67;;;24.10;;
70228;SDS011;57617;51.988;5.854;2022-12-11T06:21:51;122.43;;;23.80;;
70228;SDS011;57617;51.988;5.854;2022-12-11T06:24:16;115.70;;;24.93;;
70228;SDS011;57617;51.988;5.854;2022-12-11T06:26:42;118.60;;;24.90;;
70228;SDS011;57617;51.988;5.854;2022-12-11T06:29:07;111.37;;;23.17;;
70228;SDS011;57617;51.988;5.854;2022-12-11T06:31:32;112.87;;;25.73;;
70228;SDS011;57617;51.988;5.854;2022-12-11T06:33:58;110.87;;;23.20;;
70228;SDS011;57617;51.988;5.854;2022-12-11T06:36:23;96.67;;;21.03;;
70228;SDS011;57617;51.988;5.854;2022-12-11T06:38:49;99.33;;;22.37;;
70228;SDS011;57617;51.988;5.854;2022-12-11T06:41:15;92.27;;;20.40;;
70228;SDS011;57617;51.988;5.854;2022-12-11T06:43:40;95.57;;;21.93;;
70228;SDS011;57617;51.988;5.854;2022-12-11T06:46:08;89.77;;;21.93;;
70228;SDS011;57617;51.988;5.854;2022-12-11T06:48:38;87.70;;;21.13;;
70228;SDS011;57617;51.988;5.854;2022-12-11T06:51:04;83.37;;;20.77;;
70228;SDS011;57617;51.988;5.854;2022-12-11T06:53:30;84.87;;;20.07;;
70228;SDS011;57617;51.988;5.854;2022-12-11T06:56:00;77.10;;;19.57;;
70228;SDS011;57617;51.988;5.854;2022-12-11T06:58:26;80.30;;;20.47;;
70228;SDS011;57617;51.988;5.854;2022-12-11T07:00:51;77.60;;;22.93;;
70228;SDS011;57617;51.988;5.854;2022-12-11T07:03:17;66.70;;;19.17;;
70228;SDS011;57617;51.988;5.854;2022-12-11T07:05:42;68.70;;;20.07;;
70228;SDS011;57617;51.988;5.854;2022-12-11T07:08:07;67.33;;;19.17;;
70228;SDS011;57617;51.988;5.854;2022-12-11T07:10:33;70.00;;;18.03;;
70228;SDS011;57617;51.988;5.854;2022-12-11T07:12:58;65.37;;;18.70;;
70228;SDS011;57617;51.988;5.854;2022-12-11T07:15:23;60.43;;;18.10;;
70228;SDS011;57617;51.988;5.854;2022-12-11T07:17:48;67.67;;;18.70;;
70228;SDS011;57617;51.988;5.854;2022-12-11T07:20:14;70.13;;;19.50;;
70228;SDS011;57617;51.988;5.854;2022-12-11T07:22:39;84.30;;;29.80;;
70228;SDS011;57617;51.988;5.854;2022-12-11T07:25:04;141.77;;;49.70;;
70228;SDS011;57617;51.988;5.854;2022-12-11T07:27:30;84.87;;;31.17;;
70228;SDS011;57617;51.988;5.854;2022-12-11T07:29:55;81.20;;;26.10;;
70228;SDS011;57617;51.988;5.854;2022-12-11T07:32:21;59.00;;;21.00;;
70228;SDS011;57617;51.988;5.854;2022-12-11T07:34:49;68.57;;;21.90;;
70228;SDS011;57617;51.988;5.854;2022-12-11T07:37:15;62.23;;;20.13;;
70228;SDS011;57617;51.988;5.854;2022-12-11T07:39:40;61.10;;;19.70;;
70228;SDS011;57617;51.988;5.854;2022-12-11T07:42:06;53.53;;;17.67;;
70228;SDS011;57617;51.988;5.854;2022-12-11T07:44:31;55.77;;;19.43;;
70228;SDS011;57617;51.988;5.854;2022-12-11T07:46:57;52.27;;;16.20;;
70228;SDS011;57617;51.988;5.854;2022-12-11T07:49:22;51.17;;;16.67;;
70228;SDS011;57617;51.988;5.854;2022-12-11T07:51:47;51.70;;;16.73;;
70228;SDS011;57617;51.988;5.854;2022-12-11T07:54:13;50.70;;;17.47;;
70228;SDS011;57617;51.988;5.854;2022-12-11T07:56:41;58.50;;;19.57;;
70228;SDS011;57617;51.988;5.854;2022-12-11T07:59:07;55.47;;;17.00;;
70228;SDS011;57617;51.988;5.854;2022-12-11T08:01:33;58.23;;;19.33;;
70228;SDS011;57617;51.988;5.854;2022-12-11T08:04:00;53.83;;;17.90;;
70228;SDS011;57617;51.988;5.854;2022-12-11T08:06:28;55.90;;;17.80;;
70228;SDS011;57617;51.988;5.854;2022-12-11T08:08:55;46.40;;;15.27;;
70228;SDS011;57617;51.988;5.854;2022-12-11T08:11:22;52.13;;;18.93;;
70228;SDS011;57617;51.988;5.854;2022-12-11T08:13:48;57.33;;;20.23;;
70228;SDS011;57617;51.988;5.854;2022-12-11T08:16:13;47.53;;;17.97;;
70228;SDS011;57617;51.988;5.854;2022-12-11T08:18:40;49.60;;;17.47;;
70228;SDS011;57617;51.988;5.854;2022-12-11T08:23:39;46.83;;;17.30;;
70228;SDS011;57617;51.988;5.854;2022-12-11T08:26:05;41.67;;;14.43;;
70228;SDS011;57617;51.988;5.854;2022-12-11T08:28:32;41.03;;;15.10;;
70228;SDS011;57617;51.988;5.854;2022-12-11T08:30:57;38.50;;;13.70;;
70228;SDS011;57617;51.988;5.854;2022-12-11T08:33:23;38.57;;;14.33;;
70228;SDS011;57617;51.988;5.854;2022-12-11T08:35:48;39.93;;;13.67;;
70228;SDS011;57617;51.988;5.854;2022-12-11T08:38:14;41.37;;;13.80;;
70228;SDS011;57617;51.988;5.854;2022-12-11T08:40:39;47.17;;;17.77;;
70228;SDS011;57617;51.988;5.854;2022-12-11T08:43:04;47.63;;;17.67;;
70228;SDS011;57617;51.988;5.854;2022-12-11T08:45:30;37.00;;;13.43;;
70228;SDS011;57617;51.988;5.854;2022-12-11T08:47:56;43.90;;;16.70;;
70228;SDS011;57617;51.988;5.854;2022-12-11T08:50:22;60.50;;;30.37;;
70228;SDS011;57617;51.988;5.854;2022-12-11T08:52:48;45.33;;;19.70;;
70228;SDS011;57617;51.988;5.854;2022-12-11T08:55:13;38.13;;;14.93;;
70228;SDS011;57617;51.988;5.854;2022-12-11T08:57:38;45.30;;;17.40;;
70228;SDS011;57617;51.988;5.854;2022-12-11T09:00:04;35.83;;;12.83;;
70228;SDS011;57617;51.988;5.854;2022-12-11T09:02:31;37.27;;;13.77;;
70228;SDS011;57617;51.988;5.854;2022-12-11T09:04:56;41.17;;;14.43;;
70228;SDS011;57617;51.988;5.854;2022-12-11T09:07:22;45.43;;;14.80;;
70228;SDS011;57617;51.988;5.854;2022-12-11T09:09:47;39.63;;;13.50;;
70228;SDS011;57617;51.988;5.854;2022-12-11T09:12:12;41.37;;;13.97;;
70228;SDS011;57617;51.988;5.854;2022-12-11T09:14:37;42.30;;;15.63;;
70228;SDS011;57617;51.988;5.854;2022-12-11T09:17:03;38.20;;;13.70;;
70228;SDS011;57617;51.988;5.854;2022-12-11T09:19:29;36.17;;;13.67;;
70228;SDS011;57617;51.988;5.854;2022-12-11T09:21:54;37.00;;;14.17;;
70228;SDS011;57617;51.988;5.854;2022-12-11T09:24:20;37.33;;;12.90;;
70228;SDS011;57617;51.988;5.854;2022-12-11T09:26:45;38.83;;;13.60;;
70228;SDS011;57617;51.988;5.854;2022-12-11T09:29:11;34.50;;;13.10;;
70228;SDS011;57617;51.988;5.854;2022-12-11T09:31:37;42.13;;;14.10;;
70228;SDS011;57617;51.988;5.854;2022-12-11T09:34:04;45.23;;;15.10;;
70228;SDS011;57617;51.988;5.854;2022-12-11T09:36:31;40.93;;;15.23;;
70228;SDS011;57617;51.988;5.854;2022-12-11T09:39:03;37.60;;;13.67;;
70228;SDS011;57617;51.988;5.854;2022-12-11T09:41:37;88.63;;;15.07;;
70228;SDS011;57617;51.988;5.854;2022-12-11T09:44:23;36.43;;;13.57;;
70228;SDS011;57617;51.988;5.854;2022-12-11T09:46:56;40.57;;;13.33;;
70228;SDS011;57617;51.988;5.854;2022-12-11T09:49:27;36.13;;;13.93;;
70228;SDS011;57617;51.988;5.854;2022-12-11T09:51:59;39.80;;;13.30;;
70228;SDS011;57617;51.988;5.854;2022-12-11T09:54:50;37.93;;;13.00;;
70228;SDS011;57617;51.988;5.854;2022-12-11T10:02:45;41.30;;;14.50;;
70228;SDS011;57617;51.988;5.854;2022-12-11T10:08:10;44.37;;;14.00;;
70228;SDS011;57617;51.988;5.854;2022-12-11T10:11:02;45.50;;;14.60;;
70228;SDS011;57617;51.988;5.854;2022-12-11T10:14:14;37.00;;;13.73;;
70228;SDS011;57617;51.988;5.854;2022-12-11T10:19:07;39.63;;;13.73;;
70228;SDS011;57617;51.988;5.854;2022-12-11T10:21:41;39.00;;;14.80;;
70228;SDS011;57617;51.988;5.854;2022-12-11T10:24:12;36.90;;;13.87;;
70228;SDS011;57617;51.988;5.854;2022-12-11T10:26:43;40.23;;;13.67;;
70228;SDS011;57617;51.988;5.854;2022-12-11T10:29:11;42.23;;;14.33;;
70228;SDS011;57617;51.988;5.854;2022-12-11T10:34:56;40.30;;;14.37;;
70228;SDS011;57617;51.988;5.854;2022-12-11T10:37:03;43.53;;;16.83;;
70228;SDS011;57617;51.988;5.854;2022-12-11T10:39:29;43.03;;;15.83;;
70228;SDS011;57617;51.988;5.854;2022-12-11T10:41:54;46.27;;;15.63;;
70228;SDS011;57617;51.988;5.854;2022-12-11T10:44:24;44.60;;;15.70;;
70228;SDS011;57617;51.988;5.854;2022-12-11T10:47:03;41.73;;;15.00;;
70228;SDS011;57617;51.988;5.854;2022-12-11T10:49:32;40.73;;;14.90;;
70228;SDS011;57617;51.988;5.854;2022-12-11T10:51:59;44.10;;;15.57;;
70228;SDS011;57617;51.988;5.854;2022-12-11T10:56:54;38.90;;;14.83;;
70228;SDS011;57617;51.988;5.854;2022-12-11T10:59:24;42.60;;;15.30;;
70228;SDS011;57617;51.988;5.854;2022-12-11T11:02:03;39.33;;;14.47;;
70228;SDS011;57617;51.988;5.854;2022-12-11T11:04:31;42.87;;;14.63;;
70228;SDS011;57617;51.988;5.854;2022-12-11T11:07:00;38.60;;;14.77;;
70228;SDS011;57617;51.988;5.854;2022-12-11T11:09:37;43.30;;;15.67;;
70228;SDS011;57617;51.988;5.854;2022-12-11T11:12:03;41.70;;;15.50;;
70228;SDS011;57617;51.988;5.854;2022-12-11T11:14:40;43.47;;;15.63;;
70228;SDS011;57617;51.988;5.854;2022-12-11T11:17:09;43.50;;;15.83;;
70228;SDS011;57617;51.988;5.854;2022-12-11T11:19:39;42.45;;;17.42;;
70228;SDS011;57617;51.988;5.854;2022-12-11T11:22:05;43.60;;;16.47;;
70228;SDS011;57617;51.988;5.854;2022-12-11T11:30:02;45.30;;;16.47;;
70228;SDS011;57617;51.988;5.854;2022-12-11T11:32:35;43.90;;;16.47;;
70228;SDS011;57617;51.988;5.854;2022-12-11T11:35:13;41.50;;;17.20;;
70228;SDS011;57617;51.988;5.854;2022-12-11T11:37:51;48.87;;;18.60;;
70228;SDS011;57617;51.988;5.854;2022-12-11T11:40:30;45.60;;;18.03;;
70228;SDS011;57617;51.988;5.854;2022-12-11T11:43:18;43.50;;;17.20;;
70228;SDS011;57617;51.988;5.854;2022-12-11T11:46:28;48.77;;;19.70;;
70228;SDS011;57617;51.988;5.854;2022-12-11T11:51:37;52.63;;;20.27;;
70228;SDS011;57617;51.988;5.854;2022-12-11T11:54:14;47.80;;;17.90;;
70228;SDS011;57617;51.988;5.854;2022-12-11T11:56:49;47.50;;;19.40;;
70228;SDS011;57617;51.988;5.854;2022-12-11T11:59:20;49.40;;;18.13;;
70228;SDS011;57617;51.988;5.854;2022-12-11T12:01:53;54.10;;;18.40;;
70228;SDS011;57617;51.988;5.854;2022-12-11T12:04:20;47.20;;;18.47;;
70228;SDS011;57617;51.988;5.854;2022-12-11T12:10:09;51.77;;;17.07;;
70228;SDS011;57617;51.988;5.854;2022-12-11T12:18:35;47.57;;;17.20;;
70228;SDS011;57617;51.988;5.854;2022-12-11T12:32:26;50.40;;;18.73;;
70228;SDS011;57617;51.988;5.854;2022-12-11T12:35:24;56.97;;;19.70;;
70228;SDS011;57617;51.988;5.854;2022-12-11T12:38:06;43.40;;;15.47;;
70228;SDS011;57617;51.988;5.854;2022-12-11T12:40:50;57.40;;;21.37;;
70228;SDS011;57617;51.988;5.854;2022-12-11T12:43:29;55.73;;;20.30;;
70228;SDS011;57617;51.988;5.854;2022-12-11T12:48:38;50.00;;;17.23;;
70228;SDS011;57617;51.988;5.854;2022-12-11T12:51:04;48.70;;;18.23;;
70228;SDS011;57617;51.988;5.854;2022-12-11T12:53:31;50.73;;;18.60;;
70228;SDS011;57617;51.988;5.854;2022-12-11T12:56:00;49.47;;;18.17;;
70228;SDS011;57617;51.988;5.854;2022-12-11T13:01:09;49.27;;;18.10;;
70228;SDS011;57617;51.988;5.854;2022-12-11T13:06:36;47.30;;;16.57;;
70228;SDS011;57617;51.988;5.854;2022-12-11T13:09:23;50.23;;;18.37;;
70228;SDS011;57617;51.988;5.854;2022-12-11T13:11:51;47.13;;;16.80;;
70228;SDS011;57617;51.988;5.854;2022-12-11T13:14:22;50.13;;;18.67;;
70228;SDS011;57617;51.988;5.854;2022-12-11T13:17:05;44.23;;;16.97;;
70228;SDS011;57617;51.988;5.854;2022-12-11T13:19:47;46.87;;;17.33;;
70228;SDS011;57617;51.988;5.854;2022-12-11T13:24:45;50.83;;;17.63;;
70228;SDS011;57617;51.988;5.854;2022-12-11T13:27:21;47.73;;;17.57;;
70228;SDS011;57617;51.988;5.854;2022-12-11T13:30:03;48.40;;;17.20;;
70228;SDS011;57617;51.988;5.854;2022-12-11T13:33:20;47.20;;;16.93;;
70228;SDS011;57617;51.988;5.854;2022-12-11T13:35:41;50.20;;;18.20;;
70228;SDS011;57617;51.988;5.854;2022-12-11T13:38:07;48.67;;;17.43;;
70228;SDS011;57617;51.988;5.854;2022-12-11T13:40:41;45.47;;;17.87;;
70228;SDS011;57617;51.988;5.854;2022-12-11T13:43:14;51.70;;;16.90;;
70228;SDS011;57617;51.988;5.854;2022-12-11T13:48:18;49.03;;;17.83;;
70228;SDS011;57617;51.988;5.854;2022-12-11T13:50:55;55.93;;;20.83;;
70228;SDS011;57617;51.988;5.854;2022-12-11T13:53:22;50.67;;;18.63;;
70228;SDS011;57617;51.988;5.854;2022-12-11T13:55:57;50.90;;;19.47;;
70228;SDS011;57617;51.988;5.854;2022-12-11T13:58:25;60.43;;;21.37;;
70228;SDS011;57617;51.988;5.854;2022-12-11T14:03:56;57.90;;;21.67;;
70228;SDS011;57617;51.988;5.854;2022-12-11T14:06:25;52.60;;;19.27;;
70228;SDS011;57617;51.988;5.854;2022-12-11T14:08:53;61.50;;;23.63;;
70228;SDS011;57617;51.988;5.854;2022-12-11T14:11:22;58.33;;;21.97;;
70228;SDS011;57617;51.988;5.854;2022-12-11T14:13:51;54.47;;;19.40;;
70228;SDS011;57617;51.988;5.854;2022-12-11T14:16:19;52.00;;;20.23;;
70228;SDS011;57617;51.988;5.854;2022-12-11T14:18:48;53.03;;;20.63;;
70228;SDS011;57617;51.988;5.854;2022-12-11T14:21:18;47.80;;;18.13;;
70228;SDS011;57617;51.988;5.854;2022-12-11T14:23:55;46.10;;;17.97;;
70228;SDS011;57617;51.988;5.854;2022-12-11T14:26:26;51.93;;;18.27;;
70228;SDS011;57617;51.988;5.854;2022-12-11T14:28:55;52.47;;;20.47;;
70228;SDS011;57617;51.988;5.854;2022-12-11T14:31:25;54.20;;;21.07;;
70228;SDS011;57617;51.988;5.854;2022-12-11T14:33:57;64.13;;;21.80;;
70228;SDS011;57617;51.988;5.854;2022-12-11T14:36:26;52.67;;;19.83;;
70228;SDS011;57617;51.988;5.854;2022-12-11T14:38:55;49.73;;;19.23;;
70228;SDS011;57617;51.988;5.854;2022-12-11T14:41:28;59.67;;;21.93;;
70228;SDS011;57617;51.988;5.854;2022-12-11T14:44:04;82.27;;;34.70;;
70228;SDS011;57617;51.988;5.854;2022-12-11T14:46:37;430.40;;;175.13;;
70228;SDS011;57617;51.988;5.854;2022-12-11T14:49:12;210.33;;;75.37;;
70228;SDS011;57617;51.988;5.854;2022-12-11T14:51:40;88.47;;;33.83;;
70228;SDS011;57617;51.988;5.854;2022-12-11T14:54:06;121.47;;;47.97;;
70228;SDS011;57617;51.988;5.854;2022-12-11T14:56:43;89.33;;;32.67;;
70228;SDS011;57617;51.988;5.854;2022-12-11T14:59:14;61.80;;;23.40;;
70228;SDS011;57617;51.988;5.854;2022-12-11T15:01:43;62.70;;;25.20;;
70228;SDS011;57617;51.988;5.854;2022-12-11T15:04:18;63.57;;;25.87;;
70228;SDS011;57617;51.988;5.854;2022-12-11T15:06:47;70.53;;;27.00;;
70228;SDS011;57617;51.988;5.854;2022-12-11T15:11:50;76.70;;;30.83;;
70228;SDS011;57617;51.988;5.854;2022-12-11T15:14:19;94.65;;;45.38;;
70228;SDS011;57617;51.988;5.854;2022-12-11T15:16:46;61.90;;;22.40;;
70228;SDS011;57617;51.988;5.854;2022-12-11T15:19:21;79.60;;;30.83;;
70228;SDS011;57617;51.988;5.854;2022-12-11T15:21:50;58.30;;;23.10;;
70228;SDS011;57617;51.988;5.854;2022-12-11T15:24:33;55.22;;;20.40;;
70228;SDS011;57617;51.988;5.854;2022-12-11T15:27:02;52.45;;;18.45;;
70228;SDS011;57617;51.988;5.854;2022-12-11T15:34:32;47.20;;;16.50;;
70228;SDS011;57617;51.988;5.854;2022-12-11T15:36:59;42.93;;;17.23;;
70228;SDS011;57617;51.988;5.854;2022-12-11T15:39:25;45.53;;;16.87;;
70228;SDS011;57617;51.988;5.854;2022-12-11T15:41:50;46.57;;;17.13;;
70228;SDS011;57617;51.988;5.854;2022-12-11T15:44:17;48.40;;;17.07;;
70228;SDS011;57617;51.988;5.854;2022-12-11T15:46:45;49.30;;;18.43;;
70228;SDS011;57617;51.988;5.854;2022-12-11T15:49:11;42.93;;;16.10;;
70228;SDS011;57617;51.988;5.854;2022-12-11T15:51:37;45.40;;;16.43;;
70228;SDS011;57617;51.988;5.854;2022-12-11T15:54:02;46.63;;;16.70;;